Al Rawdah — V7VM8 — position and weather

sailwx.info

Track history (hours):
 
Tides and Currents Weather Stations Pressure Air Temp Water Temp Dewpoint Dewpoint Depression Visibility Wind Speed Wind Dir Waves Ship Positions

Al Rawdah

Last reported at 2016-May-20 22:33 UTC. Time now 2016-May-26 20:25 UTC.
Position N 35°44' E 014°50'.

Length 307 m; draft 12.5 m.

Type: Ship (hazmat cat A). MMSI: 538004160.

Date/timePositionNaut miles runAvg speedWind from/ knotsBaromVisibWave heightAir tempDewpointWater temp
2016-May-20 22:33N 35°44' E 014°50'15 2.2
2016-May-20 15:32N 35°49' E 014°33'0 0.0
2016-May-20 07:32N 35°49' E 014°33'0 0.0
2016-May-20 06:11N 35°49' E 014°33'0 0.6
2016-May-20 05:33N 35°49' E 014°33'7 6.6
2016-May-20 04:33N 35°45' E 014°40'10 9.8
2016-May-20 03:33N 35°42' E 014°28'1110.7
2016-May-20 02:33N 35°45' E 014°16'1111.0
2016-May-20 01:33N 35°51' E 014°05'1110.9
2016-May-20 00:33N 35°58' E 013°55'1110.8
2016-May-19 23:33N 36°05' E 013°44'1110.9
2016-May-19 22:33N 36°12' E 013°34'1111.1
2016-May-19 21:33N 36°19' E 013°23'1111.0
2016-May-19 20:33N 36°25' E 013°12'1111.4
2016-May-19 19:34N 36°33' E 013°02'1211.4
2016-May-19 18:30N 36°41' E 012°50'1111.4
2016-May-19 17:33N 36°51' E 012°49'1110.9
2016-May-19 16:33N 37°00' E 012°41'2811.1
2016-May-19 14:04N 37°23' E 012°21'510.5
2016-May-19 13:33N 37°25' E 012°15'1110.9
2016-May-19 12:33N 37°33' E 012°06'1211.0
2016-May-19 11:27N 37°43' E 011°57'1010.8
2016-May-19 10:31N 37°51' E 011°49'1212.0
2016-May-19 09:33N 38°01' E 011°42'8 8.4
2016-May-19 08:32N 38°09' E 011°37'28010.8
2016-May-18 06:32N 42°37' E 009°49'1111.4
2016-May-18 05:33N 42°47' E 009°44'1211.5
2016-May-18 04:30N 42°59' E 009°39'1111.6
2016-May-18 03:33N 43°09' E 009°34'1211.8
2016-May-18 02:33N 43°20' E 009°28'1111.5
2016-May-18 01:33N 43°31' E 009°22'1111.4
2016-May-18 00:33N 43°41' E 009°17'1111.0
2016-May-17 23:33N 43°52' E 009°12'1111.0
2016-May-17 22:33N 44°02' E 009°07'1111.5
2016-May-17 21:34N 44°13' E 009°01'1111.1
2016-May-17 20:33N 44°23' E 008°56'1 1.4
2016-May-17 19:33N 44°24' E 008°55'0 0.0
2016-May-17 18:33N 44°24' E 008°55'0 0.0
2016-May-17 17:33N 44°24' E 008°55'0 0.0
2016-May-17 16:30N 44°24' E 008°55'0 0.0
2016-May-17 15:33N 44°24' E 008°55'0 0.0
2016-May-17 14:33N 44°24' E 008°55'0 0.0
2016-May-17 13:33N 44°24' E 008°55'0 0.0
2016-May-17 12:33N 44°24' E 008°55'0 0.0
2016-May-17 11:33N 44°24' E 008°55'0 0.0
2016-May-17 10:33N 44°24' E 008°55'0 0.0
2016-May-17 09:33N 44°24' E 008°55'0 0.0
2016-May-17 08:33N 44°24' E 008°55'0 0.0
2016-May-17 07:33N 44°24' E 008°55'0 0.0
2016-May-17 06:33N 44°24' E 008°55'0 0.0
2016-May-17 05:30N 44°24' E 008°55'0 0.0
2016-May-17 04:33N 44°24' E 008°55'1 0.6
2016-May-17 03:34N 44°24' E 008°55'4 3.5
2016-May-17 02:33N 44°21' E 008°58'7 7.4
2016-May-17 01:34N 44°14' E 009°01'1010.1
2016-May-17 00:33N 44°04' E 009°03'10 9.8
2016-May-16 23:33N 43°54' E 009°01'1111.0
2016-May-16 22:33N 43°48' E 008°49'1111.3
2016-May-16 21:33N 43°41' E 008°37'1111.3
2016-May-16 20:33N 43°34' E 008°25'2311.4
2016-May-16 18:33N 43°20' E 007°60'24211.5
2016-May-15 21:33N 40°50' E 003°43'1212.0
2016-May-15 20:33N 40°42' E 003°31'1211.6
2016-May-15 19:34N 40°36' E 003°19'1211.8
2016-May-15 18:33N 40°29' E 003°06'1111.5
2016-May-15 17:33N 40°21' E 002°55'1211.5
2016-May-15 16:33N 40°14' E 002°43'1111.4
2016-May-15 15:33N 40°07' E 002°31'1212.3
2016-May-15 14:33N 39°59' E 002°19'1312.8
2016-May-15 13:33N 39°52' E 002°05'1212.2
2016-May-15 12:33N 39°44' E 001°53'1211.7
2016-May-15 11:33N 39°37' E 001°41'1211.7
2016-May-15 10:33N 39°29' E 001°29'1211.9
2016-May-15 09:33N 39°21' E 001°18'1211.9
2016-May-15 08:33N 39°13' E 001°07'9211.2
2016-May-15 00:21N 38°01' W 000°07'911.6
2016-May-14 23:34N 37°53' W 000°13'1211.7
2016-May-14 22:34N 37°44' W 000°21'1211.7
2016-May-14 21:33N 37°34' W 000°29'1211.6
2016-May-14 20:34N 37°26' W 000°40'1211.6
2016-May-14 19:34N 37°19' W 000°51'1211.6
2016-May-14 18:34N 37°11' W 001°02'21311.8
2016-May-14 00:33N 35°60' W 005°12'16 1.0
2016-May-13 09:33N 35°57' W 005°31'1212.1
2016-May-13 08:33N 36°02' W 005°18'21716.6
2016-May-12 19:32N 37°10' W 001°01'1717.3
2016-May-12 18:33N 37°19' W 000°44'1717.3
2016-May-12 17:33N 37°28' W 000°25'1717.4
2016-May-12 16:33N 37°41' W 000°11'2517.2
2016-May-12 15:07N 38°01' E 000°08'1017.4
2016-May-12 14:33N 38°09' E 000°15'7512.2
2016-May-12 08:25N 39°22' W 000°07'910.5
2016-May-12 07:32N 39°26' W 000°18'1 1.2
2016-May-12 06:33N 39°27' W 000°19'0 0.0
2016-May-12 05:33N 39°27' W 000°19'0 0.0
2016-May-12 04:33N 39°27' W 000°19'0 0.0
2016-May-12 03:33N 39°27' W 000°19'0 0.0
2016-May-12 02:33N 39°27' W 000°19'0 0.0
2016-May-12 01:33N 39°27' W 000°19'0 0.0
2016-May-12 00:33N 39°27' W 000°19'0 0.0
2016-May-11 23:33N 39°27' W 000°19'0 0.0
2016-May-11 22:33N 39°27' W 000°19'0 0.0
2016-May-11 21:33N 39°27' W 000°19'0 0.0
2016-May-11 20:33N 39°27' W 000°19'0 0.0
2016-May-11 19:33N 39°27' W 000°19'0 0.0
2016-May-11 18:33N 39°27' W 000°19'0 0.0
2016-May-11 17:33N 39°27' W 000°19'0 0.0
2016-May-11 16:24N 39°27' W 000°19'0 0.0
2016-May-11 15:33N 39°27' W 000°19'0 0.0
2016-May-11 14:33N 39°27' W 000°19'0 0.0
2016-May-11 13:33N 39°27' W 000°19'0 0.0
2016-May-11 12:33N 39°27' W 000°19'0 0.0
2016-May-11 11:33N 39°27' W 000°19'0 0.0
2016-May-11 10:33N 39°27' W 000°19'0 0.0
2016-May-11 09:33N 39°27' W 000°19'0 0.0
2016-May-11 08:30N 39°27' W 000°19'0 0.0
2016-May-11 07:33N 39°27' W 000°19'0 0.0
2016-May-11 06:33N 39°27' W 000°19'4 4.5
2016-May-11 05:34N 39°25' W 000°14'5 4.7
2016-May-11 04:33N 39°24' W 000°08'8 5.4
2016-May-11 03:04N 39°23' E 000°03'0 0.6
2016-May-11 02:33N 39°23' E 000°03'  
Track history (hours):
 
Tides and Currents Weather Stations Pressure Air Temp Water Temp Dewpoint Dewpoint Depression Visibility Wind Speed Wind Dir Waves Ship Positions

Al Rawdah

Last reported at 2016-May-20 22:33 UTC. Time now 2016-May-26 20:25 UTC.
Position N 35°44' E 014°50'.

Length 307 m; draft 12.5 m.

Type: Ship (hazmat cat A). MMSI: 538004160.

Date/timePositionNaut miles runAvg speedWind from/ knotsBaromVisibWave heightAir tempDewpointWater temp
2016-May-20 22:33N 35°44' E 014°50'15 2.2
2016-May-20 15:32N 35°49' E 014°33'0 0.0
2016-May-20 07:32N 35°49' E 014°33'0 0.0
2016-May-20 06:11N 35°49' E 014°33'0 0.6
2016-May-20 05:33N 35°49' E 014°33'7 6.6
2016-May-20 04:33N 35°45' E 014°40'10 9.8
2016-May-20 03:33N 35°42' E 014°28'1110.7
2016-May-20 02:33N 35°45' E 014°16'1111.0
2016-May-20 01:33N 35°51' E 014°05'1110.9
2016-May-20 00:33N 35°58' E 013°55'1110.8
2016-May-19 23:33N 36°05' E 013°44'1110.9
2016-May-19 22:33N 36°12' E 013°34'1111.1
2016-May-19 21:33N 36°19' E 013°23'1111.0
2016-May-19 20:33N 36°25' E 013°12'1111.4
2016-May-19 19:34N 36°33' E 013°02'1211.4
2016-May-19 18:30N 36°41' E 012°50'1111.4
2016-May-19 17:33N 36°51' E 012°49'1110.9
2016-May-19 16:33N 37°00' E 012°41'2811.1
2016-May-19 14:04N 37°23' E 012°21'510.5
2016-May-19 13:33N 37°25' E 012°15'1110.9
2016-May-19 12:33N 37°33' E 012°06'1211.0
2016-May-19 11:27N 37°43' E 011°57'1010.8
2016-May-19 10:31N 37°51' E 011°49'1212.0
2016-May-19 09:33N 38°01' E 011°42'8 8.4
2016-May-19 08:32N 38°09' E 011°37'28010.8
2016-May-18 06:32N 42°37' E 009°49'1111.4
2016-May-18 05:33N 42°47' E 009°44'1211.5
2016-May-18 04:30N 42°59' E 009°39'1111.6
2016-May-18 03:33N 43°09' E 009°34'1211.8
2016-May-18 02:33N 43°20' E 009°28'1111.5
2016-May-18 01:33N 43°31' E 009°22'1111.4
2016-May-18 00:33N 43°41' E 009°17'1111.0
2016-May-17 23:33N 43°52' E 009°12'1111.0
2016-May-17 22:33N 44°02' E 009°07'1111.5
2016-May-17 21:34N 44°13' E 009°01'1111.1
2016-May-17 20:33N 44°23' E 008°56'1 1.4
2016-May-17 19:33N 44°24' E 008°55'0 0.0
2016-May-17 18:33N 44°24' E 008°55'0 0.0
2016-May-17 17:33N 44°24' E 008°55'0 0.0
2016-May-17 16:30N 44°24' E 008°55'0 0.0
2016-May-17 15:33N 44°24' E 008°55'0 0.0
2016-May-17 14:33N 44°24' E 008°55'0 0.0
2016-May-17 13:33N 44°24' E 008°55'0 0.0
2016-May-17 12:33N 44°24' E 008°55'0 0.0
2016-May-17 11:33N 44°24' E 008°55'0 0.0
2016-May-17 10:33N 44°24' E 008°55'0 0.0
2016-May-17 09:33N 44°24' E 008°55'0 0.0
2016-May-17 08:33N 44°24' E 008°55'0 0.0
2016-May-17 07:33N 44°24' E 008°55'0 0.0
2016-May-17 06:33N 44°24' E 008°55'0 0.0
2016-May-17 05:30N 44°24' E 008°55'0 0.0
2016-May-17 04:33N 44°24' E 008°55'1 0.6
2016-May-17 03:34N 44°24' E 008°55'4 3.5
2016-May-17 02:33N 44°21' E 008°58'7 7.4
2016-May-17 01:34N 44°14' E 009°01'1010.1
2016-May-17 00:33N 44°04' E 009°03'10 9.8
2016-May-16 23:33N 43°54' E 009°01'1111.0
2016-May-16 22:33N 43°48' E 008°49'1111.3
2016-May-16 21:33N 43°41' E 008°37'1111.3
2016-May-16 20:33N 43°34' E 008°25'2311.4
2016-May-16 18:33N 43°20' E 007°60'24211.5
2016-May-15 21:33N 40°50' E 003°43'1212.0
2016-May-15 20:33N 40°42' E 003°31'1211.6
2016-May-15 19:34N 40°36' E 003°19'1211.8
2016-May-15 18:33N 40°29' E 003°06'1111.5
2016-May-15 17:33N 40°21' E 002°55'1211.5
2016-May-15 16:33N 40°14' E 002°43'1111.4
2016-May-15 15:33N 40°07' E 002°31'1212.3
2016-May-15 14:33N 39°59' E 002°19'1312.8
2016-May-15 13:33N 39°52' E 002°05'1212.2
2016-May-15 12:33N 39°44' E 001°53'1211.7
2016-May-15 11:33N 39°37' E 001°41'1211.7
2016-May-15 10:33N 39°29' E 001°29'1211.9
2016-May-15 09:33N 39°21' E 001°18'1211.9
2016-May-15 08:33N 39°13' E 001°07'9211.2
2016-May-15 00:21N 38°01' W 000°07'911.6
2016-May-14 23:34N 37°53' W 000°13'1211.7
2016-May-14 22:34N 37°44' W 000°21'1211.7
2016-May-14 21:33N 37°34' W 000°29'1211.6
2016-May-14 20:34N 37°26' W 000°40'1211.6
2016-May-14 19:34N 37°19' W 000°51'1211.6
2016-May-14 18:34N 37°11' W 001°02'21311.8
2016-May-14 00:33N 35°60' W 005°12'16 1.0
2016-May-13 09:33N 35°57' W 005°31'1212.1
2016-May-13 08:33N 36°02' W 005°18'21716.6
2016-May-12 19:32N 37°10' W 001°01'1717.3
2016-May-12 18:33N 37°19' W 000°44'1717.3
2016-May-12 17:33N 37°28' W 000°25'1717.4
2016-May-12 16:33N 37°41' W 000°11'2517.2
2016-May-12 15:07N 38°01' E 000°08'1017.4
2016-May-12 14:33N 38°09' E 000°15'7512.2
2016-May-12 08:25N 39°22' W 000°07'910.5
2016-May-12 07:32N 39°26' W 000°18'1 1.2
2016-May-12 06:33N 39°27' W 000°19'0 0.0
2016-May-12 05:33N 39°27' W 000°19'0 0.0
2016-May-12 04:33N 39°27' W 000°19'0 0.0
2016-May-12 03:33N 39°27' W 000°19'0 0.0
2016-May-12 02:33N 39°27' W 000°19'0 0.0
2016-May-12 01:33N 39°27' W 000°19'0 0.0
2016-May-12 00:33N 39°27' W 000°19'0 0.0
2016-May-11 23:33N 39°27' W 000°19'0 0.0
2016-May-11 22:33N 39°27' W 000°19'0 0.0
2016-May-11 21:33N 39°27' W 000°19'0 0.0
2016-May-11 20:33N 39°27' W 000°19'0 0.0
2016-May-11 19:33N 39°27' W 000°19'0 0.0
2016-May-11 18:33N 39°27' W 000°19'0 0.0
2016-May-11 17:33N 39°27' W 000°19'0 0.0
2016-May-11 16:24N 39°27' W 000°19'0 0.0
2016-May-11 15:33N 39°27' W 000°19'0 0.0
2016-May-11 14:33N 39°27' W 000°19'0 0.0
2016-May-11 13:33N 39°27' W 000°19'0 0.0
2016-May-11 12:33N 39°27' W 000°19'0 0.0
2016-May-11 11:33N 39°27' W 000°19'0 0.0
2016-May-11 10:33N 39°27' W 000°19'0 0.0
2016-May-11 09:33N 39°27' W 000°19'0 0.0
2016-May-11 08:30N 39°27' W 000°19'0 0.0
2016-May-11 07:33N 39°27' W 000°19'0 0.0
2016-May-11 06:33N 39°27' W 000°19'4 4.5
2016-May-11 05:34N 39°25' W 000°14'5 4.7
2016-May-11 04:33N 39°24' W 000°08'8 5.4
2016-May-11 03:04N 39°23' E 000°03'0 0.6
2016-May-11 02:33N 39°23' E 000°03'  

Dump ship's entire track history